sensor_id;sensor_type;location;lat;lon;timestamp;pressure;altitude;pressure_sealevel;temperature;humidity
64739;BME280;51175;51.186;0.276;2023-01-26T00:00:24;102351.34;;;10.93;67.59
64739;BME280;51175;51.186;0.276;2023-01-26T00:00:54;102347.88;;;10.93;67.60
64739;BME280;51175;51.186;0.276;2023-01-26T00:01:27;102347.88;;;10.93;67.54
64739;BME280;51175;51.186;0.276;2023-01-26T00:02:00;102340.97;;;10.92;67.42
64739;BME280;51175;51.186;0.276;2023-01-26T00:02:30;102348.09;;;10.91;67.41
64739;BME280;51175;51.186;0.276;2023-01-26T00:03:01;102348.69;;;10.93;67.44
64739;BME280;51175;51.186;0.276;2023-01-26T00:03:31;102352.94;;;10.95;67.27
64739;BME280;51175;51.186;0.276;2023-01-26T00:04:01;102344.19;;;10.94;67.53
64739;BME280;51175;51.186;0.276;2023-01-26T00:04:32;102346.03;;;10.93;67.42
64739;BME280;51175;51.186;0.276;2023-01-26T00:05:02;102353.97;;;10.93;67.47
64739;BME280;51175;51.186;0.276;2023-01-26T00:05:36;102347.66;;;10.95;67.45
64739;BME280;51175;51.186;0.276;2023-01-26T00:06:08;102359.25;;;10.93;67.33
64739;BME280;51175;51.186;0.276;2023-01-26T00:06:39;102347.66;;;10.95;67.39
64739;BME280;51175;51.186;0.276;2023-01-26T00:07:10;102347.88;;;10.93;67.28
64739;BME280;51175;51.186;0.276;2023-01-26T00:07:40;102347.88;;;10.93;67.53
64739;BME280;51175;51.186;0.276;2023-01-26T00:08:14;102355.81;;;10.93;67.29
64739;BME280;51175;51.186;0.276;2023-01-26T00:08:46;102358.22;;;10.95;67.43
64739;BME280;51175;51.186;0.276;2023-01-26T00:09:17;102364.56;;;10.93;67.33
64739;BME280;51175;51.186;0.276;2023-01-26T00:09:47;102356.63;;;10.93;67.49
64739;BME280;51175;51.186;0.276;2023-01-26T00:10:18;102355.81;;;10.93;67.47
64739;BME280;51175;51.186;0.276;2023-01-26T00:10:48;102362.69;;;10.94;67.52
64739;BME280;51175;51.186;0.276;2023-01-26T00:11:24;102350.31;;;10.95;67.46
64739;BME280;51175;51.186;0.276;2023-01-26T00:11:55;102351.34;;;10.93;67.36
64739;BME280;51175;51.186;0.276;2023-01-26T00:12:26;102355.81;;;10.93;67.52
64739;BME280;51175;51.186;0.276;2023-01-26T00:12:56;102359.25;;;10.93;67.26
64739;BME280;51175;51.186;0.276;2023-01-26T00:13:26;102351.34;;;10.93;67.42
64739;BME280;51175;51.186;0.276;2023-01-26T00:13:58;102343.63;;;10.92;67.42
64739;BME280;51175;51.186;0.276;2023-01-26T00:14:29;102351.34;;;10.93;67.16
64739;BME280;51175;51.186;0.276;2023-01-26T00:15:18;102343.41;;;10.93;67.25
64739;BME280;51175;51.186;0.276;2023-01-26T00:15:49;102350.50;;;10.93;67.13
64739;BME280;51175;51.186;0.276;2023-01-26T00:16:19;102345.22;;;10.93;67.26
64739;BME280;51175;51.186;0.276;2023-01-26T00:16:49;102345.44;;;10.91;67.36
64739;BME280;51175;51.186;0.276;2023-01-26T00:17:20;102335.69;;;10.92;67.33
64739;BME280;51175;51.186;0.276;2023-01-26T00:17:56;102348.69;;;10.93;67.32
64739;BME280;51175;51.186;0.276;2023-01-26T00:18:27;102348.91;;;10.92;67.34
64739;BME280;51175;51.186;0.276;2023-01-26T00:18:57;102348.91;;;10.92;67.20
64739;BME280;51175;51.186;0.276;2023-01-26T00:19:28;102350.50;;;10.93;67.43
64739;BME280;51175;51.186;0.276;2023-01-26T00:19:58;102346.03;;;10.93;67.31
64739;BME280;51175;51.186;0.276;2023-01-26T00:20:29;102340.16;;;10.91;67.25
64739;BME280;51175;51.186;0.276;2023-01-26T00:21:00;102340.97;;;10.92;67.24
64739;BME280;51175;51.186;0.276;2023-01-26T00:21:31;102334.88;;;10.91;67.28
64739;BME280;51175;51.186;0.276;2023-01-26T00:22:02;102347.88;;;10.93;67.31
64739;BME280;51175;51.186;0.276;2023-01-26T00:22:32;102332.22;;;10.91;67.41
64739;BME280;51175;51.186;0.276;2023-01-26T00:23:03;102332.22;;;10.91;67.35
64739;BME280;51175;51.186;0.276;2023-01-26T00:23:34;102326.13;;;10.91;67.08
64739;BME280;51175;51.186;0.276;2023-01-26T00:24:05;102330.63;;;10.90;67.25
64739;BME280;51175;51.186;0.276;2023-01-26T00:24:35;102326.13;;;10.91;67.28
64739;BME280;51175;51.186;0.276;2023-01-26T00:25:06;102328.75;;;10.91;67.34
64739;BME280;51175;51.186;0.276;2023-01-26T00:25:37;102331.41;;;10.91;67.19
64739;BME280;51175;51.186;0.276;2023-01-26T00:26:12;102327.97;;;10.90;67.31
64739;BME280;51175;51.186;0.276;2023-01-26T00:26:43;102324.28;;;10.91;67.35
64739;BME280;51175;51.186;0.276;2023-01-26T00:27:13;102328.75;;;10.91;67.33
64739;BME280;51175;51.186;0.276;2023-01-26T00:27:43;102331.41;;;10.91;67.54
64739;BME280;51175;51.186;0.276;2023-01-26T00:28:14;102325.34;;;10.90;67.42
64739;BME280;51175;51.186;0.276;2023-01-26T00:28:45;102329.59;;;10.91;67.43
64739;BME280;51175;51.186;0.276;2023-01-26T00:29:15;102329.59;;;10.91;67.40
64739;BME280;51175;51.186;0.276;2023-01-26T00:29:46;102339.34;;;10.91;67.54
64739;BME280;51175;51.186;0.276;2023-01-26T00:30:16;102331.41;;;10.91;67.41
64739;BME280;51175;51.186;0.276;2023-01-26T00:30:47;102331.41;;;10.91;67.37
64739;BME280;51175;51.186;0.276;2023-01-26T00:31:25;102331.41;;;10.91;67.40
64739;BME280;51175;51.186;0.276;2023-01-26T00:31:56;102331.41;;;10.91;67.23
64739;BME280;51175;51.186;0.276;2023-01-26T00:32:26;102328.75;;;10.91;67.28
64739;BME280;51175;51.186;0.276;2023-01-26T00:32:57;102330.63;;;10.90;66.95
64739;BME280;51175;51.186;0.276;2023-01-26T00:33:28;102331.41;;;10.91;67.21
64739;BME280;51175;51.186;0.276;2023-01-26T00:33:59;102325.34;;;10.90;67.23
64739;BME280;51175;51.186;0.276;2023-01-26T00:34:29;102333.25;;;10.90;67.30
64739;BME280;51175;51.186;0.276;2023-01-26T00:34:59;102338.53;;;10.90;67.25
64739;BME280;51175;51.186;0.276;2023-01-26T00:35:30;102338.53;;;10.90;67.30
64739;BME280;51175;51.186;0.276;2023-01-26T00:36:00;102334.88;;;10.91;67.20
64739;BME280;51175;51.186;0.276;2023-01-26T00:36:30;102339.34;;;10.91;67.22
64739;BME280;51175;51.186;0.276;2023-01-26T00:37:01;102341.97;;;10.91;67.11
64739;BME280;51175;51.186;0.276;2023-01-26T00:37:32;102331.63;;;10.89;67.27
64739;BME280;51175;51.186;0.276;2023-01-26T00:38:03;102343.00;;;10.90;67.22
64739;BME280;51175;51.186;0.276;2023-01-26T00:38:34;102343.84;;;10.90;67.32
64739;BME280;51175;51.186;0.276;2023-01-26T00:39:04;102343.00;;;10.90;67.29
64739;BME280;51175;51.186;0.276;2023-01-26T00:39:34;102344.63;;;10.91;67.38
64739;BME280;51175;51.186;0.276;2023-01-26T00:40:05;102344.63;;;10.91;67.44
64739;BME280;51175;51.186;0.276;2023-01-26T00:40:35;102341.19;;;10.90;67.11
64739;BME280;51175;51.186;0.276;2023-01-26T00:41:06;102348.09;;;10.91;67.21
64739;BME280;51175;51.186;0.276;2023-01-26T00:41:36;102345.44;;;10.91;67.31
64739;BME280;51175;51.186;0.276;2023-01-26T00:42:25;102355.19;;;10.91;67.05
64739;BME280;51175;51.186;0.276;2023-01-26T00:42:56;102349.91;;;10.91;67.18
64739;BME280;51175;51.186;0.276;2023-01-26T00:43:28;102352.56;;;10.91;67.14
64739;BME280;51175;51.186;0.276;2023-01-26T00:43:59;102354.41;;;10.90;67.34
64739;BME280;51175;51.186;0.276;2023-01-26T00:44:29;102354.41;;;10.90;67.48
64739;BME280;51175;51.186;0.276;2023-01-26T00:45:00;102349.13;;;10.90;67.25
64739;BME280;51175;51.186;0.276;2023-01-26T00:45:30;102357.06;;;10.90;67.35
64739;BME280;51175;51.186;0.276;2023-01-26T00:46:01;102357.06;;;10.90;67.22
64739;BME280;51175;51.186;0.276;2023-01-26T00:46:31;102349.91;;;10.91;67.33
64739;BME280;51175;51.186;0.276;2023-01-26T00:47:02;102356.22;;;10.90;67.12
64739;BME280;51175;51.186;0.276;2023-01-26T00:47:32;102351.78;;;10.90;67.09
64739;BME280;51175;51.186;0.276;2023-01-26T00:48:02;102346.47;;;10.90;67.34
64739;BME280;51175;51.186;0.276;2023-01-26T00:48:33;102351.78;;;10.90;67.33
64739;BME280;51175;51.186;0.276;2023-01-26T00:49:03;102355.19;;;10.91;67.23
64739;BME280;51175;51.186;0.276;2023-01-26T00:49:34;102350.72;;;10.91;67.33
64739;BME280;51175;51.186;0.276;2023-01-26T00:50:05;102352.56;;;10.91;67.28
64739;BME280;51175;51.186;0.276;2023-01-26T00:50:35;102355.19;;;10.91;67.21
64739;BME280;51175;51.186;0.276;2023-01-26T00:51:05;102356.00;;;10.91;67.27
64739;BME280;51175;51.186;0.276;2023-01-26T00:51:36;102353.38;;;10.91;67.12
64739;BME280;51175;51.186;0.276;2023-01-26T00:52:06;102356.00;;;10.91;67.19
64739;BME280;51175;51.186;0.276;2023-01-26T00:52:37;102359.47;;;10.92;67.32
64739;BME280;51175;51.186;0.276;2023-01-26T00:53:07;102348.09;;;10.91;67.52
64739;BME280;51175;51.186;0.276;2023-01-26T00:53:38;102351.56;;;10.92;67.36
64739;BME280;51175;51.186;0.276;2023-01-26T00:54:08;102353.38;;;10.91;67.31
64739;BME280;51175;51.186;0.276;2023-01-26T00:54:38;102349.91;;;10.91;67.31
64739;BME280;51175;51.186;0.276;2023-01-26T00:55:09;102350.72;;;10.91;67.17
64739;BME280;51175;51.186;0.276;2023-01-26T00:55:39;102348.91;;;10.92;67.32
64739;BME280;51175;51.186;0.276;2023-01-26T00:56:09;102350.72;;;10.91;67.24
64739;BME280;51175;51.186;0.276;2023-01-26T00:56:40;102348.09;;;10.91;67.47
64739;BME280;51175;51.186;0.276;2023-01-26T00:57:10;102351.56;;;10.92;67.44
64739;BME280;51175;51.186;0.276;2023-01-26T00:57:40;102351.78;;;10.90;67.22
64739;BME280;51175;51.186;0.276;2023-01-26T00:58:11;102346.25;;;10.92;67.39
64739;BME280;51175;51.186;0.276;2023-01-26T00:58:41;102347.28;;;10.91;67.16
64739;BME280;51175;51.186;0.276;2023-01-26T00:59:13;102348.09;;;10.91;67.21
64739;BME280;51175;51.186;0.276;2023-01-26T00:59:44;102344.63;;;10.91;67.16
64739;BME280;51175;51.186;0.276;2023-01-26T01:00:17;102338.53;;;10.90;67.11
64739;BME280;51175;51.186;0.276;2023-01-26T01:00:49;102347.28;;;10.91;67.24
64739;BME280;51175;51.186;0.276;2023-01-26T01:01:19;102356.84;;;10.92;67.23
64739;BME280;51175;51.186;0.276;2023-01-26T01:01:50;102348.09;;;10.91;67.33
64739;BME280;51175;51.186;0.276;2023-01-26T01:02:20;102344.63;;;10.91;67.43
64739;BME280;51175;51.186;0.276;2023-01-26T01:02:51;102349.91;;;10.91;67.41
64739;BME280;51175;51.186;0.276;2023-01-26T01:03:21;102350.72;;;10.91;67.18
64739;BME280;51175;51.186;0.276;2023-01-26T01:03:52;102347.28;;;10.91;67.30
64739;BME280;51175;51.186;0.276;2023-01-26T01:04:22;102345.22;;;10.93;67.35
64739;BME280;51175;51.186;0.276;2023-01-26T01:04:53;102352.34;;;10.92;67.30
64739;BME280;51175;51.186;0.276;2023-01-26T01:05:24;102348.91;;;10.92;67.46
64739;BME280;51175;51.186;0.276;2023-01-26T01:05:55;102343.41;;;10.93;67.47
64739;BME280;51175;51.186;0.276;2023-01-26T01:06:25;102351.56;;;10.92;67.34
64739;BME280;51175;51.186;0.276;2023-01-26T01:06:56;102343.63;;;10.92;67.27
64739;BME280;51175;51.186;0.276;2023-01-26T01:07:27;102353.16;;;10.93;67.14
64739;BME280;51175;51.186;0.276;2023-01-26T01:07:57;102353.38;;;10.91;67.33
64739;BME280;51175;51.186;0.276;2023-01-26T01:08:28;102346.03;;;10.93;67.31
64739;BME280;51175;51.186;0.276;2023-01-26T01:08:58;102348.09;;;10.91;67.32
64739;BME280;51175;51.186;0.276;2023-01-26T01:09:28;102348.09;;;10.91;67.27
64739;BME280;51175;51.186;0.276;2023-01-26T01:09:59;102348.91;;;10.92;67.43
64739;BME280;51175;51.186;0.276;2023-01-26T01:10:29;102348.91;;;10.92;67.52
64739;BME280;51175;51.186;0.276;2023-01-26T01:11:08;102353.38;;;10.91;67.30
64739;BME280;51175;51.186;0.276;2023-01-26T01:11:39;102354.19;;;10.92;67.12
64739;BME280;51175;51.186;0.276;2023-01-26T01:12:09;102349.69;;;10.92;67.07
64739;BME280;51175;51.186;0.276;2023-01-26T01:12:39;102351.56;;;10.92;67.24
64739;BME280;51175;51.186;0.276;2023-01-26T01:13:10;102349.13;;;10.90;67.00
64739;BME280;51175;51.186;0.276;2023-01-26T01:13:40;102353.38;;;10.91;67.12
64739;BME280;51175;51.186;0.276;2023-01-26T01:14:12;102345.44;;;10.91;67.08
64739;BME280;51175;51.186;0.276;2023-01-26T01:14:42;102353.38;;;10.91;67.23
64739;BME280;51175;51.186;0.276;2023-01-26T01:15:12;102341.97;;;10.91;67.12
64739;BME280;51175;51.186;0.276;2023-01-26T01:15:43;102355.19;;;10.91;67.24
64739;BME280;51175;51.186;0.276;2023-01-26T01:16:14;102338.53;;;10.90;67.32
64739;BME280;51175;51.186;0.276;2023-01-26T01:16:46;102343.84;;;10.90;67.19
64739;BME280;51175;51.186;0.276;2023-01-26T01:17:16;102347.28;;;10.91;67.14
64739;BME280;51175;51.186;0.276;2023-01-26T01:17:47;102344.63;;;10.91;66.92
64739;BME280;51175;51.186;0.276;2023-01-26T01:18:17;102349.13;;;10.90;67.13
64739;BME280;51175;51.186;0.276;2023-01-26T01:18:51;102346.47;;;10.90;67.19
64739;BME280;51175;51.186;0.276;2023-01-26T01:19:22;102349.13;;;10.90;67.12
64739;BME280;51175;51.186;0.276;2023-01-26T01:19:53;102349.13;;;10.90;67.18
64739;BME280;51175;51.186;0.276;2023-01-26T01:20:23;102349.91;;;10.91;67.28
64739;BME280;51175;51.186;0.276;2023-01-26T01:20:53;102348.31;;;10.90;66.98
64739;BME280;51175;51.186;0.276;2023-01-26T01:21:24;102349.13;;;10.90;67.30
64739;BME280;51175;51.186;0.276;2023-01-26T01:21:55;102356.22;;;10.90;67.12
64739;BME280;51175;51.186;0.276;2023-01-26T01:22:25;102353.59;;;10.90;67.21
64739;BME280;51175;51.186;0.276;2023-01-26T01:22:55;102343.00;;;10.90;67.19
64739;BME280;51175;51.186;0.276;2023-01-26T01:23:27;102357.06;;;10.90;67.32
64739;BME280;51175;51.186;0.276;2023-01-26T01:23:58;102355.19;;;10.91;67.17
64739;BME280;51175;51.186;0.276;2023-01-26T01:24:29;102347.28;;;10.91;67.14
64739;BME280;51175;51.186;0.276;2023-01-26T01:25:00;102353.59;;;10.90;67.25
64739;BME280;51175;51.186;0.276;2023-01-26T01:25:30;102353.38;;;10.91;67.25
64739;BME280;51175;51.186;0.276;2023-01-26T01:26:01;102352.56;;;10.91;67.44
64739;BME280;51175;51.186;0.276;2023-01-26T01:26:32;102358.66;;;10.91;67.31
64739;BME280;51175;51.186;0.276;2023-01-26T01:27:02;102354.41;;;10.90;67.23
64739;BME280;51175;51.186;0.276;2023-01-26T01:27:33;102350.72;;;10.91;67.10
64739;BME280;51175;51.186;0.276;2023-01-26T01:28:03;102349.13;;;10.90;67.22
64739;BME280;51175;51.186;0.276;2023-01-26T01:28:34;102356.84;;;10.92;67.11
64739;BME280;51175;51.186;0.276;2023-01-26T01:29:05;102354.19;;;10.92;67.27
64739;BME280;51175;51.186;0.276;2023-01-26T01:29:36;102356.00;;;10.91;67.24
64739;BME280;51175;51.186;0.276;2023-01-26T01:30:07;102353.38;;;10.91;67.10
64739;BME280;51175;51.186;0.276;2023-01-26T01:30:38;102354.19;;;10.92;67.28
64739;BME280;51175;51.186;0.276;2023-01-26T01:31:13;102354.97;;;10.92;67.17
64739;BME280;51175;51.186;0.276;2023-01-26T01:31:44;102351.56;;;10.92;67.20
64739;BME280;51175;51.186;0.276;2023-01-26T01:32:15;102352.56;;;10.91;67.19
64739;BME280;51175;51.186;0.276;2023-01-26T01:32:45;102348.09;;;10.91;67.32
64739;BME280;51175;51.186;0.276;2023-01-26T01:33:19;102356.00;;;10.91;67.22
64739;BME280;51175;51.186;0.276;2023-01-26T01:33:50;102361.09;;;10.93;67.07
64739;BME280;51175;51.186;0.276;2023-01-26T01:34:21;102362.13;;;10.92;67.01
64739;BME280;51175;51.186;0.276;2023-01-26T01:34:51;102359.25;;;10.93;67.28
64739;BME280;51175;51.186;0.276;2023-01-26T01:35:22;102356.63;;;10.93;67.24
64739;BME280;51175;51.186;0.276;2023-01-26T01:36:00;102354.75;;;10.94;67.01
64739;BME280;51175;51.186;0.276;2023-01-26T01:36:31;102353.16;;;10.93;67.04
64739;BME280;51175;51.186;0.276;2023-01-26T01:37:01;102350.50;;;10.93;67.41
64739;BME280;51175;51.186;0.276;2023-01-26T01:37:31;102352.34;;;10.92;67.43
64739;BME280;51175;51.186;0.276;2023-01-26T01:38:02;102347.88;;;10.93;67.50
64739;BME280;51175;51.186;0.276;2023-01-26T01:38:33;102348.91;;;10.92;67.31
64739;BME280;51175;51.186;0.276;2023-01-26T01:39:03;102356.84;;;10.92;67.20
64739;BME280;51175;51.186;0.276;2023-01-26T01:39:34;102358.44;;;10.93;67.12
64739;BME280;51175;51.186;0.276;2023-01-26T01:40:05;102354.19;;;10.92;67.11
64739;BME280;51175;51.186;0.276;2023-01-26T01:40:41;102355.19;;;10.91;67.24
64739;BME280;51175;51.186;0.276;2023-01-26T01:41:14;102360.50;;;10.91;67.04
64739;BME280;51175;51.186;0.276;2023-01-26T01:41:44;102356.00;;;10.91;66.99
64739;BME280;51175;51.186;0.276;2023-01-26T01:42:15;102363.13;;;10.91;66.99
64739;BME280;51175;51.186;0.276;2023-01-26T01:42:47;102361.31;;;10.91;67.08
64739;BME280;51175;51.186;0.276;2023-01-26T01:43:17;102359.47;;;10.92;67.00
64739;BME280;51175;51.186;0.276;2023-01-26T01:43:50;102354.19;;;10.92;67.13
64739;BME280;51175;51.186;0.276;2023-01-26T01:44:22;102363.13;;;10.91;67.12
64739;BME280;51175;51.186;0.276;2023-01-26T01:45:26;102358.66;;;10.91;67.23
64739;BME280;51175;51.186;0.276;2023-01-26T01:47:21;102371.06;;;10.91;67.01
64739;BME280;51175;51.186;0.276;2023-01-26T01:47:58;102372.09;;;10.90;67.26
64739;BME280;51175;51.186;0.276;2023-01-26T01:48:40;102375.78;;;10.89;67.17
64739;BME280;51175;51.186;0.276;2023-01-26T01:49:25;102376.56;;;10.89;67.04
64739;BME280;51175;51.186;0.276;2023-01-26T01:49:56;102379.22;;;10.89;67.28
64739;BME280;51175;51.186;0.276;2023-01-26T01:50:26;102384.50;;;10.89;67.19
64739;BME280;51175;51.186;0.276;2023-01-26T01:51:03;102376.00;;;10.87;67.09
64739;BME280;51175;51.186;0.276;2023-01-26T01:51:43;102374.13;;;10.88;67.12
64739;BME280;51175;51.186;0.276;2023-01-26T01:52:24;102376.00;;;10.87;67.08
64739;BME280;51175;51.186;0.276;2023-01-26T01:52:55;102373.34;;;10.87;67.08
64739;BME280;51175;51.186;0.276;2023-01-26T01:53:31;102375.16;;;10.87;67.38
64739;BME280;51175;51.186;0.276;2023-01-26T01:54:06;102368.28;;;10.86;67.34
64739;BME280;51175;51.186;0.276;2023-01-26T01:54:44;102366.41;;;10.86;67.29
64739;BME280;51175;51.186;0.276;2023-01-26T01:55:16;102374.34;;;10.86;67.24
64739;BME280;51175;51.186;0.276;2023-01-26T01:55:46;102370.91;;;10.86;67.29
64739;BME280;51175;51.186;0.276;2023-01-26T01:56:20;102366.41;;;10.86;67.27
64739;BME280;51175;51.186;0.276;2023-01-26T01:56:55;102365.63;;;10.86;67.24
64739;BME280;51175;51.186;0.276;2023-01-26T01:57:32;102371.72;;;10.86;67.36
64739;BME280;51175;51.186;0.276;2023-01-26T01:58:13;102370.91;;;10.86;67.48
64739;BME280;51175;51.186;0.276;2023-01-26T01:58:44;102370.91;;;10.86;67.42
64739;BME280;51175;51.186;0.276;2023-01-26T01:59:15;102369.06;;;10.86;67.49
64739;BME280;51175;51.186;0.276;2023-01-26T02:00:05;102368.28;;;10.86;67.34
64739;BME280;51175;51.186;0.276;2023-01-26T02:00:36;102370.09;;;10.85;67.18
64739;BME280;51175;51.186;0.276;2023-01-26T02:01:07;102371.13;;;10.84;67.31
64739;BME280;51175;51.186;0.276;2023-01-26T02:01:38;102364.00;;;10.85;67.29
64739;BME280;51175;51.186;0.276;2023-01-26T02:02:09;102361.34;;;10.85;67.31
64739;BME280;51175;51.186;0.276;2023-01-26T02:02:42;102364.00;;;10.85;67.23
64739;BME280;51175;51.186;0.276;2023-01-26T02:03:13;102368.28;;;10.86;67.32
64739;BME280;51175;51.186;0.276;2023-01-26T02:03:46;102367.44;;;10.85;67.18
64739;BME280;51175;51.186;0.276;2023-01-26T02:04:20;102364.00;;;10.85;67.23
64739;BME280;51175;51.186;0.276;2023-01-26T02:04:53;102364.00;;;10.85;67.15
64739;BME280;51175;51.186;0.276;2023-01-26T02:05:32;102358.72;;;10.85;67.28
64739;BME280;51175;51.186;0.276;2023-01-26T02:06:46;102364.81;;;10.85;67.17
64739;BME280;51175;51.186;0.276;2023-01-26T02:07:17;102365.84;;;10.84;67.30
64739;BME280;51175;51.186;0.276;2023-01-26T02:07:49;102362.16;;;10.85;67.23
64739;BME280;51175;51.186;0.276;2023-01-26T02:08:24;102356.88;;;10.85;67.07
64739;BME280;51175;51.186;0.276;2023-01-26T02:08:56;102359.53;;;10.85;67.20
64739;BME280;51175;51.186;0.276;2023-01-26T02:09:35;102363.78;;;10.86;67.08
64739;BME280;51175;51.186;0.276;2023-01-26T02:10:38;102367.44;;;10.85;66.96
64739;BME280;51175;51.186;0.276;2023-01-26T02:11:15;102367.44;;;10.85;67.23
64739;BME280;51175;51.186;0.276;2023-01-26T02:11:46;102373.78;;;10.84;67.10
64739;BME280;51175;51.186;0.276;2023-01-26T02:12:20;102374.56;;;10.85;67.07
64739;BME280;51175;51.186;0.276;2023-01-26T02:12:54;102367.66;;;10.84;67.33
64739;BME280;51175;51.186;0.276;2023-01-26T02:13:26;102379.84;;;10.85;67.27
64739;BME280;51175;51.186;0.276;2023-01-26T02:13:57;102368.50;;;10.84;66.97
64739;BME280;51175;51.186;0.276;2023-01-26T02:14:31;102373.78;;;10.84;67.10
64739;BME280;51175;51.186;0.276;2023-01-26T02:15:02;102372.97;;;10.84;67.10
64739;BME280;51175;51.186;0.276;2023-01-26T02:15:33;102373.78;;;10.84;67.05
64739;BME280;51175;51.186;0.276;2023-01-26T02:16:04;102379.06;;;10.84;67.05
64739;BME280;51175;51.186;0.276;2023-01-26T02:16:35;102374.56;;;10.85;67.20
64739;BME280;51175;51.186;0.276;2023-01-26T02:17:05;102374.56;;;10.85;66.97
64739;BME280;51175;51.186;0.276;2023-01-26T02:17:36;102370.09;;;10.85;67.06
64739;BME280;51175;51.186;0.276;2023-01-26T02:18:07;102370.09;;;10.85;67.03
64739;BME280;51175;51.186;0.276;2023-01-26T02:18:40;102374.56;;;10.85;67.12
64739;BME280;51175;51.186;0.276;2023-01-26T02:21:04;102374.56;;;10.85;67.21
64739;BME280;51175;51.186;0.276;2023-01-26T02:21:36;102371.13;;;10.84;67.30
64739;BME280;51175;51.186;0.276;2023-01-26T02:22:29;102376.41;;;10.84;67.24
64739;BME280;51175;51.186;0.276;2023-01-26T02:23:26;102371.13;;;10.84;67.20
64739;BME280;51175;51.186;0.276;2023-01-26T02:24:10;102371.34;;;10.83;67.10
64739;BME280;51175;51.186;0.276;2023-01-26T02:24:44;102377.41;;;10.83;67.15
64739;BME280;51175;51.186;0.276;2023-01-26T02:26:38;102378.47;;;10.82;67.21
64739;BME280;51175;51.186;0.276;2023-01-26T02:27:08;102381.09;;;10.82;67.15
64739;BME280;51175;51.186;0.276;2023-01-26T02:27:39;102382.13;;;10.81;67.22
64739;BME280;51175;51.186;0.276;2023-01-26T02:28:09;102378.66;;;10.80;67.25
64739;BME280;51175;51.186;0.276;2023-01-26T02:28:41;102371.56;;;10.81;67.08
64739;BME280;51175;51.186;0.276;2023-01-26T02:29:13;102373.38;;;10.80;67.16
64739;BME280;51175;51.186;0.276;2023-01-26T02:29:43;102379.50;;;10.81;67.38
64739;BME280;51175;51.186;0.276;2023-01-26T02:30:14;102376.84;;;10.81;67.45
64739;BME280;51175;51.186;0.276;2023-01-26T02:30:45;102376.84;;;10.81;67.25
64739;BME280;51175;51.186;0.276;2023-01-26T02:31:17;102376.84;;;10.81;67.24
64739;BME280;51175;51.186;0.276;2023-01-26T02:31:50;102377.41;;;10.83;67.33
64739;BME280;51175;51.186;0.276;2023-01-26T02:32:22;102381.91;;;10.83;67.30
64739;BME280;51175;51.186;0.276;2023-01-26T02:32:53;102375.59;;;10.84;67.29
64739;BME280;51175;51.186;0.276;2023-01-26T02:33:26;102377.41;;;10.83;67.35
64739;BME280;51175;51.186;0.276;2023-01-26T02:33:57;102372.97;;;10.84;67.31
64739;BME280;51175;51.186;0.276;2023-01-26T02:34:27;102377.41;;;10.83;67.07
64739;BME280;51175;51.186;0.276;2023-01-26T02:34:58;102380.06;;;10.83;67.17
64739;BME280;51175;51.186;0.276;2023-01-26T02:35:28;102383.53;;;10.84;67.27
64739;BME280;51175;51.186;0.276;2023-01-26T02:35:59;102385.34;;;10.83;67.21
64739;BME280;51175;51.186;0.276;2023-01-26T02:36:32;102389.63;;;10.84;67.07
64739;BME280;51175;51.186;0.276;2023-01-26T02:37:03;102385.34;;;10.83;67.06
64739;BME280;51175;51.186;0.276;2023-01-26T02:37:33;102393.28;;;10.83;67.05
64739;BME280;51175;51.186;0.276;2023-01-26T02:38:03;102388.00;;;10.83;67.18
64739;BME280;51175;51.186;0.276;2023-01-26T02:38:39;102388.00;;;10.83;67.14
64739;BME280;51175;51.186;0.276;2023-01-26T02:40:36;102384.56;;;10.83;66.96
64739;BME280;51175;51.186;0.276;2023-01-26T02:41:12;102395.94;;;10.83;66.99
64739;BME280;51175;51.186;0.276;2023-01-26T02:42:03;102391.66;;;10.82;66.97
64739;BME280;51175;51.186;0.276;2023-01-26T02:42:52;102396.13;;;10.82;66.96
64739;BME280;51175;51.186;0.276;2023-01-26T02:43:25;102395.13;;;10.83;66.93
64739;BME280;51175;51.186;0.276;2023-01-26T02:43:56;102390.84;;;10.82;67.12
64739;BME280;51175;51.186;0.276;2023-01-26T02:44:28;102396.97;;;10.82;67.15
64739;BME280;51175;51.186;0.276;2023-01-26T02:44:58;102384.16;;;10.79;67.06
64739;BME280;51175;51.186;0.276;2023-01-26T02:45:30;102394.53;;;10.80;67.36
64739;BME280;51175;51.186;0.276;2023-01-26T02:46:02;102391.06;;;10.80;67.20
64739;BME280;51175;51.186;0.276;2023-01-26T02:46:32;102397.19;;;10.80;67.53
64739;BME280;51175;51.186;0.276;2023-01-26T02:47:14;102400.84;;;10.79;67.19
64739;BME280;51175;51.186;0.276;2023-01-26T02:47:45;102392.09;;;10.79;67.31
64739;BME280;51175;51.186;0.276;2023-01-26T02:48:15;102394.53;;;10.80;67.06
64739;BME280;51175;51.186;0.276;2023-01-26T02:49:06;102394.75;;;10.79;67.27
64739;BME280;51175;51.186;0.276;2023-01-26T02:49:55;102386.00;;;10.78;67.13
64739;BME280;51175;51.186;0.276;2023-01-26T02:50:27;102398.41;;;10.78;67.14
64739;BME280;51175;51.186;0.276;2023-01-26T02:50:57;102401.84;;;10.78;67.01
64739;BME280;51175;51.186;0.276;2023-01-26T02:51:28;102397.59;;;10.77;67.09
64739;BME280;51175;51.186;0.276;2023-01-26T02:51:58;102394.97;;;10.77;66.94
64739;BME280;51175;51.186;0.276;2023-01-26T02:52:29;102393.13;;;10.78;67.11
64739;BME280;51175;51.186;0.276;2023-01-26T02:53:03;102400.25;;;10.77;66.99
64739;BME280;51175;51.186;0.276;2023-01-26T02:53:33;102398.41;;;10.78;67.25
64739;BME280;51175;51.186;0.276;2023-01-26T02:54:04;102394.75;;;10.79;67.09
64739;BME280;51175;51.186;0.276;2023-01-26T02:54:34;102392.31;;;10.77;67.10
64739;BME280;51175;51.186;0.276;2023-01-26T02:55:24;102384.38;;;10.77;67.20
64739;BME280;51175;51.186;0.276;2023-01-26T02:55:55;102389.66;;;10.77;67.05
64739;BME280;51175;51.186;0.276;2023-01-26T02:56:25;102392.53;;;10.76;67.22